sensor_id;sensor_type;location;lat;lon;timestamp;P1;durP1;ratioP1;P2;durP2;ratioP2
12059;SDS011;6091;51.432;6.880;2023-04-25T00:00:18;0.55;;;0.55;;
12059;SDS011;6091;51.432;6.880;2023-04-25T00:02:46;0.50;;;0.50;;
12059;SDS011;6091;51.432;6.880;2023-04-25T00:05:13;0.40;;;0.40;;
12059;SDS011;6091;51.432;6.880;2023-04-25T00:07:41;0.30;;;0.30;;
12059;SDS011;6091;51.432;6.880;2023-04-25T00:10:09;0.40;;;0.40;;
12059;SDS011;6091;51.432;6.880;2023-04-25T00:12:38;0.70;;;0.50;;
12059;SDS011;6091;51.432;6.880;2023-04-25T00:15:05;0.30;;;0.30;;
12059;SDS011;6091;51.432;6.880;2023-04-25T00:17:33;0.45;;;0.45;;
12059;SDS011;6091;51.432;6.880;2023-04-25T00:20:01;0.40;;;0.40;;
12059;SDS011;6091;51.432;6.880;2023-04-25T00:22:31;0.30;;;0.30;;
12059;SDS011;6091;51.432;6.880;2023-04-25T00:25:00;0.40;;;0.40;;
12059;SDS011;6091;51.432;6.880;2023-04-25T00:27:27;0.30;;;0.30;;
12059;SDS011;6091;51.432;6.880;2023-04-25T00:29:54;0.38;;;0.38;;
12059;SDS011;6091;51.432;6.880;2023-04-25T00:32:21;0.82;;;0.40;;
12059;SDS011;6091;51.432;6.880;2023-04-25T00:34:48;0.30;;;0.30;;
12059;SDS011;6091;51.432;6.880;2023-04-25T00:37:15;0.45;;;0.40;;
12059;SDS011;6091;51.432;6.880;2023-04-25T00:39:42;0.85;;;0.60;;
12059;SDS011;6091;51.432;6.880;2023-04-25T00:42:09;0.40;;;0.40;;
12059;SDS011;6091;51.432;6.880;2023-04-25T00:44:37;0.40;;;0.40;;
12059;SDS011;6091;51.432;6.880;2023-04-25T00:47:04;0.45;;;0.40;;
12059;SDS011;6091;51.432;6.880;2023-04-25T00:49:33;0.50;;;0.50;;
12059;SDS011;6091;51.432;6.880;2023-04-25T00:52:00;0.40;;;0.40;;
12059;SDS011;6091;51.432;6.880;2023-04-25T00:54:27;0.30;;;0.30;;
12059;SDS011;6091;51.432;6.880;2023-04-25T00:56:54;0.40;;;0.40;;
12059;SDS011;6091;51.432;6.880;2023-04-25T00:59:21;0.30;;;0.30;;
12059;SDS011;6091;51.432;6.880;2023-04-25T01:01:48;0.50;;;0.50;;
12059;SDS011;6091;51.432;6.880;2023-04-25T01:04:16;0.40;;;0.40;;
12059;SDS011;6091;51.432;6.880;2023-04-25T01:06:44;0.45;;;0.40;;
12059;SDS011;6091;51.432;6.880;2023-04-25T01:09:12;0.52;;;0.52;;
12059;SDS011;6091;51.432;6.880;2023-04-25T01:11:39;0.38;;;0.38;;
12059;SDS011;6091;51.432;6.880;2023-04-25T01:14:06;0.32;;;0.32;;
12059;SDS011;6091;51.432;6.880;2023-04-25T01:16:33;0.50;;;0.50;;
12059;SDS011;6091;51.432;6.880;2023-04-25T01:19:01;0.30;;;0.30;;
12059;SDS011;6091;51.432;6.880;2023-04-25T01:21:31;0.30;;;0.30;;
12059;SDS011;6091;51.432;6.880;2023-04-25T01:23:58;0.50;;;0.47;;
12059;SDS011;6091;51.432;6.880;2023-04-25T01:26:26;0.40;;;0.40;;
12059;SDS011;6091;51.432;6.880;2023-04-25T01:28:53;0.40;;;0.40;;
12059;SDS011;6091;51.432;6.880;2023-04-25T01:31:21;0.40;;;0.40;;
12059;SDS011;6091;51.432;6.880;2023-04-25T01:33:48;0.77;;;0.50;;
12059;SDS011;6091;51.432;6.880;2023-04-25T01:36:15;0.50;;;0.50;;
12059;SDS011;6091;51.432;6.880;2023-04-25T01:38:44;0.30;;;0.30;;
12059;SDS011;6091;51.432;6.880;2023-04-25T01:41:13;0.40;;;0.40;;
12059;SDS011;6091;51.432;6.880;2023-04-25T01:43:41;0.40;;;0.40;;
12059;SDS011;6091;51.432;6.880;2023-04-25T01:46:09;0.50;;;0.50;;
12059;SDS011;6091;51.432;6.880;2023-04-25T01:48:37;0.50;;;0.45;;
12059;SDS011;6091;51.432;6.880;2023-04-25T01:51:04;0.50;;;0.50;;
12059;SDS011;6091;51.432;6.880;2023-04-25T01:53:31;0.50;;;0.50;;
12059;SDS011;6091;51.432;6.880;2023-04-25T01:55:58;0.40;;;0.40;;
12059;SDS011;6091;51.432;6.880;2023-04-25T01:58:26;0.40;;;0.40;;
12059;SDS011;6091;51.432;6.880;2023-04-25T02:00:52;0.60;;;0.47;;
12059;SDS011;6091;51.432;6.880;2023-04-25T02:03:20;0.45;;;0.43;;
12059;SDS011;6091;51.432;6.880;2023-04-25T02:05:47;0.40;;;0.40;;
12059;SDS011;6091;51.432;6.880;2023-04-25T02:08:16;0.40;;;0.40;;
12059;SDS011;6091;51.432;6.880;2023-04-25T02:10:44;0.40;;;0.40;;
12059;SDS011;6091;51.432;6.880;2023-04-25T02:13:11;0.40;;;0.40;;
12059;SDS011;6091;51.432;6.880;2023-04-25T02:15:38;0.30;;;0.30;;
12059;SDS011;6091;51.432;6.880;2023-04-25T02:18:05;0.40;;;0.40;;
12059;SDS011;6091;51.432;6.880;2023-04-25T02:20:33;0.50;;;0.50;;
12059;SDS011;6091;51.432;6.880;2023-04-25T02:23:00;0.50;;;0.50;;
12059;SDS011;6091;51.432;6.880;2023-04-25T02:25:27;0.43;;;0.43;;
12059;SDS011;6091;51.432;6.880;2023-04-25T02:27:54;0.50;;;0.50;;
12059;SDS011;6091;51.432;6.880;2023-04-25T02:30:24;0.25;;;0.25;;
12059;SDS011;6091;51.432;6.880;2023-04-25T02:32:51;0.40;;;0.40;;
12059;SDS011;6091;51.432;6.880;2023-04-25T02:35:18;0.40;;;0.40;;
12059;SDS011;6091;51.432;6.880;2023-04-25T02:37:45;0.30;;;0.30;;
12059;SDS011;6091;51.432;6.880;2023-04-25T02:40:13;1.00;;;0.40;;
12059;SDS011;6091;51.432;6.880;2023-04-25T02:42:43;0.50;;;0.50;;
12059;SDS011;6091;51.432;6.880;2023-04-25T02:45:12;0.63;;;0.50;;
12059;SDS011;6091;51.432;6.880;2023-04-25T02:47:39;0.40;;;0.40;;
12059;SDS011;6091;51.432;6.880;2023-04-25T02:50:06;0.40;;;0.40;;
12059;SDS011;6091;51.432;6.880;2023-04-25T02:52:34;0.60;;;0.60;;
12059;SDS011;6091;51.432;6.880;2023-04-25T02:55:01;0.43;;;0.40;;
12059;SDS011;6091;51.432;6.880;2023-04-25T02:57:28;0.65;;;0.60;;
12059;SDS011;6091;51.432;6.880;2023-04-25T02:59:55;0.50;;;0.50;;
12059;SDS011;6091;51.432;6.880;2023-04-25T03:02:22;0.35;;;0.30;;
12059;SDS011;6091;51.432;6.880;2023-04-25T03:04:49;0.40;;;0.30;;
12059;SDS011;6091;51.432;6.880;2023-04-25T03:07:16;0.43;;;0.43;;
12059;SDS011;6091;51.432;6.880;2023-04-25T03:09:43;0.40;;;0.40;;
12059;SDS011;6091;51.432;6.880;2023-04-25T03:12:10;0.40;;;0.40;;
12059;SDS011;6091;51.432;6.880;2023-04-25T03:14:37;0.40;;;0.40;;
12059;SDS011;6091;51.432;6.880;2023-04-25T03:17:04;0.30;;;0.30;;
12059;SDS011;6091;51.432;6.880;2023-04-25T03:19:31;0.30;;;0.30;;
12059;SDS011;6091;51.432;6.880;2023-04-25T03:21:58;0.40;;;0.40;;
12059;SDS011;6091;51.432;6.880;2023-04-25T03:24:25;0.47;;;0.40;;
12059;SDS011;6091;51.432;6.880;2023-04-25T03:26:53;0.60;;;0.35;;
12059;SDS011;6091;51.432;6.880;2023-04-25T03:29:20;0.30;;;0.30;;
12059;SDS011;6091;51.432;6.880;2023-04-25T03:31:50;0.30;;;0.30;;
12059;SDS011;6091;51.432;6.880;2023-04-25T03:34:17;0.50;;;0.50;;
12059;SDS011;6091;51.432;6.880;2023-04-25T03:36:44;0.43;;;0.43;;
12059;SDS011;6091;51.432;6.880;2023-04-25T03:39:11;0.30;;;0.30;;
12059;SDS011;6091;51.432;6.880;2023-04-25T03:41:38;0.20;;;0.20;;
12059;SDS011;6091;51.432;6.880;2023-04-25T03:44:05;0.60;;;0.43;;
12059;SDS011;6091;51.432;6.880;2023-04-25T03:46:32;0.38;;;0.32;;
12059;SDS011;6091;51.432;6.880;2023-04-25T03:48:59;0.40;;;0.40;;
12059;SDS011;6091;51.432;6.880;2023-04-25T03:51:27;0.63;;;0.60;;
12059;SDS011;6091;51.432;6.880;2023-04-25T03:53:54;0.50;;;0.50;;
12059;SDS011;6091;51.432;6.880;2023-04-25T03:56:21;0.50;;;0.40;;
12059;SDS011;6091;51.432;6.880;2023-04-25T03:58:48;0.40;;;0.40;;
12059;SDS011;6091;51.432;6.880;2023-04-25T04:01:15;0.32;;;0.32;;
12059;SDS011;6091;51.432;6.880;2023-04-25T04:03:42;0.70;;;0.47;;
12059;SDS011;6091;51.432;6.880;2023-04-25T04:06:10;0.30;;;0.30;;
12059;SDS011;6091;51.432;6.880;2023-04-25T04:08:37;0.30;;;0.30;;
12059;SDS011;6091;51.432;6.880;2023-04-25T04:11:04;0.52;;;0.40;;
12059;SDS011;6091;51.432;6.880;2023-04-25T04:13:34;0.70;;;0.50;;
12059;SDS011;6091;51.432;6.880;2023-04-25T04:16:01;0.40;;;0.40;;
12059;SDS011;6091;51.432;6.880;2023-04-25T04:18:30;0.30;;;0.30;;
12059;SDS011;6091;51.432;6.880;2023-04-25T04:20:59;0.45;;;0.45;;
12059;SDS011;6091;51.432;6.880;2023-04-25T04:23:26;0.30;;;0.30;;
12059;SDS011;6091;51.432;6.880;2023-04-25T04:25:54;0.60;;;0.50;;
12059;SDS011;6091;51.432;6.880;2023-04-25T04:28:24;0.30;;;0.30;;
12059;SDS011;6091;51.432;6.880;2023-04-25T04:30:52;0.63;;;0.40;;
12059;SDS011;6091;51.432;6.880;2023-04-25T04:33:19;0.73;;;0.50;;
12059;SDS011;6091;51.432;6.880;2023-04-25T04:35:47;0.43;;;0.43;;
12059;SDS011;6091;51.432;6.880;2023-04-25T04:38:14;0.40;;;0.40;;
12059;SDS011;6091;51.432;6.880;2023-04-25T04:40:42;0.30;;;0.30;;
12059;SDS011;6091;51.432;6.880;2023-04-25T04:43:12;0.45;;;0.45;;
12059;SDS011;6091;51.432;6.880;2023-04-25T04:45:39;0.30;;;0.30;;
12059;SDS011;6091;51.432;6.880;2023-04-25T04:48:06;0.30;;;0.30;;
12059;SDS011;6091;51.432;6.880;2023-04-25T04:50:34;0.55;;;0.50;;
12059;SDS011;6091;51.432;6.880;2023-04-25T04:53:01;0.32;;;0.32;;
12059;SDS011;6091;51.432;6.880;2023-04-25T04:55:30;0.30;;;0.30;;
12059;SDS011;6091;51.432;6.880;2023-04-25T04:57:57;0.40;;;0.40;;
12059;SDS011;6091;51.432;6.880;2023-04-25T05:00:24;0.40;;;0.40;;
12059;SDS011;6091;51.432;6.880;2023-04-25T05:02:55;0.35;;;0.35;;
12059;SDS011;6091;51.432;6.880;2023-04-25T05:05:23;0.50;;;0.50;;
12059;SDS011;6091;51.432;6.880;2023-04-25T05:07:50;0.40;;;0.40;;
12059;SDS011;6091;51.432;6.880;2023-04-25T05:10:18;0.68;;;0.50;;
12059;SDS011;6091;51.432;6.880;2023-04-25T05:12:46;0.40;;;0.40;;
12059;SDS011;6091;51.432;6.880;2023-04-25T05:15:13;0.45;;;0.45;;
12059;SDS011;6091;51.432;6.880;2023-04-25T05:17:40;0.35;;;0.35;;
12059;SDS011;6091;51.432;6.880;2023-04-25T05:20:08;0.50;;;0.47;;
12059;SDS011;6091;51.432;6.880;2023-04-25T05:22:35;0.40;;;0.40;;
12059;SDS011;6091;51.432;6.880;2023-04-25T05:25:03;0.40;;;0.40;;
12059;SDS011;6091;51.432;6.880;2023-04-25T05:27:30;0.40;;;0.40;;
12059;SDS011;6091;51.432;6.880;2023-04-25T05:29:58;0.43;;;0.40;;
12059;SDS011;6091;51.432;6.880;2023-04-25T05:32:25;0.75;;;0.40;;
12059;SDS011;6091;51.432;6.880;2023-04-25T05:34:53;2.00;;;0.80;;
12059;SDS011;6091;51.432;6.880;2023-04-25T05:37:20;0.35;;;0.35;;
12059;SDS011;6091;51.432;6.880;2023-04-25T05:39:48;0.40;;;0.40;;
12059;SDS011;6091;51.432;6.880;2023-04-25T05:42:17;0.40;;;0.40;;
12059;SDS011;6091;51.432;6.880;2023-04-25T05:44:44;0.40;;;0.40;;
12059;SDS011;6091;51.432;6.880;2023-04-25T05:47:14;2.17;;;0.40;;
12059;SDS011;6091;51.432;6.880;2023-04-25T05:49:41;1.17;;;0.73;;
12059;SDS011;6091;51.432;6.880;2023-04-25T05:52:08;0.93;;;0.50;;
12059;SDS011;6091;51.432;6.880;2023-04-25T05:54:35;0.50;;;0.50;;
12059;SDS011;6091;51.432;6.880;2023-04-25T05:57:05;0.40;;;0.40;;
12059;SDS011;6091;51.432;6.880;2023-04-25T05:59:32;0.75;;;0.43;;
12059;SDS011;6091;51.432;6.880;2023-04-25T06:01:59;1.98;;;0.80;;
12059;SDS011;6091;51.432;6.880;2023-04-25T06:04:27;2.05;;;0.70;;
12059;SDS011;6091;51.432;6.880;2023-04-25T06:06:55;3.05;;;0.50;;
12059;SDS011;6091;51.432;6.880;2023-04-25T06:09:22;0.77;;;0.60;;
12059;SDS011;6091;51.432;6.880;2023-04-25T06:11:49;1.58;;;0.70;;
12059;SDS011;6091;51.432;6.880;2023-04-25T06:14:16;1.42;;;0.52;;
12059;SDS011;6091;51.432;6.880;2023-04-25T06:16:43;1.05;;;0.60;;
12059;SDS011;6091;51.432;6.880;2023-04-25T06:19:10;0.40;;;0.40;;
12059;SDS011;6091;51.432;6.880;2023-04-25T06:21:37;0.40;;;0.40;;
12059;SDS011;6091;51.432;6.880;2023-04-25T06:24:04;1.60;;;0.50;;
12059;SDS011;6091;51.432;6.880;2023-04-25T06:26:31;0.55;;;0.55;;
12059;SDS011;6091;51.432;6.880;2023-04-25T06:28:58;1.27;;;0.60;;
12059;SDS011;6091;51.432;6.880;2023-04-25T06:31:25;4.70;;;0.80;;
12059;SDS011;6091;51.432;6.880;2023-04-25T06:33:54;3.65;;;0.95;;
12059;SDS011;6091;51.432;6.880;2023-04-25T06:36:21;2.15;;;0.93;;
12059;SDS011;6091;51.432;6.880;2023-04-25T06:38:51;2.50;;;1.05;;
12059;SDS011;6091;51.432;6.880;2023-04-25T06:41:21;4.45;;;0.85;;
12059;SDS011;6091;51.432;6.880;2023-04-25T06:43:48;4.95;;;1.20;;
12059;SDS011;6091;51.432;6.880;2023-04-25T06:46:15;1.63;;;0.80;;
12059;SDS011;6091;51.432;6.880;2023-04-25T06:48:43;2.88;;;0.90;;
12059;SDS011;6091;51.432;6.880;2023-04-25T06:51:10;2.78;;;0.90;;
12059;SDS011;6091;51.432;6.880;2023-04-25T06:53:37;1.60;;;0.90;;
12059;SDS011;6091;51.432;6.880;2023-04-25T06:56:04;3.13;;;0.98;;
12059;SDS011;6091;51.432;6.880;2023-04-25T06:58:32;1.90;;;0.88;;
12059;SDS011;6091;51.432;6.880;2023-04-25T07:00:59;3.25;;;1.05;;
12059;SDS011;6091;51.432;6.880;2023-04-25T07:03:26;2.75;;;1.00;;
12059;SDS011;6091;51.432;6.880;2023-04-25T07:05:53;2.92;;;1.08;;
12059;SDS011;6091;51.432;6.880;2023-04-25T07:08:21;3.40;;;1.20;;
12059;SDS011;6091;51.432;6.880;2023-04-25T07:10:51;5.00;;;1.00;;
12059;SDS011;6091;51.432;6.880;2023-04-25T07:13:18;2.05;;;1.00;;
12059;SDS011;6091;51.432;6.880;2023-04-25T07:15:46;1.73;;;0.70;;
12059;SDS011;6091;51.432;6.880;2023-04-25T07:18:14;5.38;;;1.52;;
12059;SDS011;6091;51.432;6.880;2023-04-25T07:20:42;3.72;;;1.05;;
12059;SDS011;6091;51.432;6.880;2023-04-25T07:23:09;4.07;;;1.20;;
12059;SDS011;6091;51.432;6.880;2023-04-25T07:25:36;6.15;;;1.00;;
12059;SDS011;6091;51.432;6.880;2023-04-25T07:28:03;2.30;;;0.95;;
12059;SDS011;6091;51.432;6.880;2023-04-25T07:30:31;2.45;;;0.90;;
12059;SDS011;6091;51.432;6.880;2023-04-25T07:32:58;2.78;;;0.88;;
12059;SDS011;6091;51.432;6.880;2023-04-25T07:35:25;1.23;;;0.70;;
12059;SDS011;6091;51.432;6.880;2023-04-25T07:37:52;6.30;;;1.05;;
12059;SDS011;6091;51.432;6.880;2023-04-25T07:40:23;0.80;;;0.73;;
12059;SDS011;6091;51.432;6.880;2023-04-25T07:42:50;2.15;;;1.00;;
12059;SDS011;6091;51.432;6.880;2023-04-25T07:45:20;1.20;;;0.75;;
12059;SDS011;6091;51.432;6.880;2023-04-25T07:47:47;1.40;;;0.90;;
12059;SDS011;6091;51.432;6.880;2023-04-25T07:50:15;3.00;;;0.95;;
12059;SDS011;6091;51.432;6.880;2023-04-25T07:52:42;1.25;;;0.82;;
12059;SDS011;6091;51.432;6.880;2023-04-25T07:55:09;1.95;;;0.70;;
12059;SDS011;6091;51.432;6.880;2023-04-25T07:57:37;1.60;;;0.70;;
12059;SDS011;6091;51.432;6.880;2023-04-25T08:00:05;2.30;;;0.95;;
12059;SDS011;6091;51.432;6.880;2023-04-25T08:02:36;1.20;;;0.80;;
12059;SDS011;6091;51.432;6.880;2023-04-25T08:05:06;1.35;;;0.75;;
12059;SDS011;6091;51.432;6.880;2023-04-25T08:07:38;1.85;;;0.82;;
12059;SDS011;6091;51.432;6.880;2023-04-25T08:10:08;1.40;;;0.93;;
12059;SDS011;6091;51.432;6.880;2023-04-25T08:12:36;3.60;;;1.08;;
12059;SDS011;6091;51.432;6.880;2023-04-25T08:15:04;2.65;;;0.80;;
12059;SDS011;6091;51.432;6.880;2023-04-25T08:17:32;4.50;;;1.10;;
12059;SDS011;6091;51.432;6.880;2023-04-25T08:20:00;1.83;;;1.13;;
12059;SDS011;6091;51.432;6.880;2023-04-25T08:22:29;4.35;;;1.10;;
12059;SDS011;6091;51.432;6.880;2023-04-25T08:24:57;4.03;;;1.00;;
12059;SDS011;6091;51.432;6.880;2023-04-25T08:27:24;2.72;;;1.10;;
12059;SDS011;6091;51.432;6.880;2023-04-25T08:29:51;2.50;;;1.15;;
12059;SDS011;6091;51.432;6.880;2023-04-25T08:32:18;3.80;;;0.88;;
12059;SDS011;6091;51.432;6.880;2023-04-25T08:34:47;4.32;;;1.40;;
12059;SDS011;6091;51.432;6.880;2023-04-25T08:37:14;2.97;;;0.80;;
12059;SDS011;6091;51.432;6.880;2023-04-25T08:39:41;1.05;;;0.80;;
12059;SDS011;6091;51.432;6.880;2023-04-25T08:42:08;1.67;;;0.95;;
12059;SDS011;6091;51.432;6.880;2023-04-25T08:44:38;2.22;;;0.90;;
12059;SDS011;6091;51.432;6.880;2023-04-25T08:47:06;1.42;;;0.70;;
12059;SDS011;6091;51.432;6.880;2023-04-25T08:49:33;0.77;;;0.70;;
12059;SDS011;6091;51.432;6.880;2023-04-25T08:52:03;2.35;;;0.90;;
12059;SDS011;6091;51.432;6.880;2023-04-25T08:54:32;0.88;;;0.70;;
12059;SDS011;6091;51.432;6.880;2023-04-25T08:57:03;2.05;;;0.70;;
12059;SDS011;6091;51.432;6.880;2023-04-25T08:59:39;2.33;;;0.90;;
12059;SDS011;6091;51.432;6.880;2023-04-25T09:02:11;3.00;;;0.80;;
12059;SDS011;6091;51.432;6.880;2023-04-25T09:04:44;0.98;;;0.82;;
12059;SDS011;6091;51.432;6.880;2023-04-25T09:07:11;2.97;;;0.80;;
12059;SDS011;6091;51.432;6.880;2023-04-25T09:09:42;1.58;;;0.85;;
12059;SDS011;6091;51.432;6.880;2023-04-25T09:12:09;1.33;;;0.80;;
12059;SDS011;6091;51.432;6.880;2023-04-25T09:14:37;1.85;;;0.70;;
12059;SDS011;6091;51.432;6.880;2023-04-25T09:17:05;0.70;;;0.50;;
12059;SDS011;6091;51.432;6.880;2023-04-25T09:19:35;1.05;;;0.70;;
12059;SDS011;6091;51.432;6.880;2023-04-25T09:22:07;2.40;;;1.10;;
12059;SDS011;6091;51.432;6.880;2023-04-25T09:24:38;2.38;;;1.08;;
12059;SDS011;6091;51.432;6.880;2023-04-25T09:27:10;1.90;;;0.68;;
12059;SDS011;6091;51.432;6.880;2023-04-25T09:29:44;2.42;;;0.80;;
12059;SDS011;6091;51.432;6.880;2023-04-25T09:32:19;1.53;;;1.00;;
12059;SDS011;6091;51.432;6.880;2023-04-25T09:34:50;1.85;;;0.80;;
12059;SDS011;6091;51.432;6.880;2023-04-25T09:37:21;1.10;;;0.70;;
12059;SDS011;6091;51.432;6.880;2023-04-25T09:39:56;1.55;;;0.60;;
12059;SDS011;6091;51.432;6.880;2023-04-25T09:42:27;1.00;;;0.63;;
12059;SDS011;6091;51.432;6.880;2023-04-25T09:44:58;1.83;;;0.90;;
12059;SDS011;6091;51.432;6.880;2023-04-25T09:47:28;1.70;;;1.23;;
12059;SDS011;6091;51.432;6.880;2023-04-25T09:49:57;2.15;;;1.30;;
12059;SDS011;6091;51.432;6.880;2023-04-25T09:52:27;3.53;;;1.48;;
12059;SDS011;6091;51.432;6.880;2023-04-25T09:54:56;4.68;;;1.60;;
12059;SDS011;6091;51.432;6.880;2023-04-25T09:57:24;4.07;;;1.52;;
12059;SDS011;6091;51.432;6.880;2023-04-25T09:59:52;3.80;;;1.40;;
12059;SDS011;6091;51.432;6.880;2023-04-25T10:02:23;2.67;;;1.30;;
12059;SDS011;6091;51.432;6.880;2023-04-25T10:04:56;2.78;;;1.40;;
12059;SDS011;6091;51.432;6.880;2023-04-25T10:07:29;3.72;;;1.50;;
12059;SDS011;6091;51.432;6.880;2023-04-25T10:10:01;5.80;;;1.38;;
12059;SDS011;6091;51.432;6.880;2023-04-25T10:12:30;2.20;;;1.20;;
12059;SDS011;6091;51.432;6.880;2023-04-25T10:15:00;5.60;;;1.58;;
12059;SDS011;6091;51.432;6.880;2023-04-25T10:17:29;2.38;;;1.30;;
12059;SDS011;6091;51.432;6.880;2023-04-25T10:19:59;1.88;;;1.30;;
12059;SDS011;6091;51.432;6.880;2023-04-25T10:22:38;2.60;;;1.08;;
12059;SDS011;6091;51.432;6.880;2023-04-25T10:25:10;1.80;;;1.05;;
12059;SDS011;6091;51.432;6.880;2023-04-25T10:27:39;3.25;;;1.27;;
12059;SDS011;6091;51.432;6.880;2023-04-25T10:30:08;1.75;;;0.98;;
12059;SDS011;6091;51.432;6.880;2023-04-25T10:32:42;2.45;;;1.15;;
12059;SDS011;6091;51.432;6.880;2023-04-25T10:35:15;1.02;;;0.80;;
12059;SDS011;6091;51.432;6.880;2023-04-25T10:37:56;1.38;;;0.95;;
12059;SDS011;6091;51.432;6.880;2023-04-25T10:40:36;1.10;;;1.00;;
12059;SDS011;6091;51.432;6.880;2023-04-25T10:46:00;0.70;;;0.70;;
12059;SDS011;6091;51.432;6.880;2023-04-25T10:48:44;1.50;;;0.77;;
12059;SDS011;6091;51.432;6.880;2023-04-25T10:51:23;1.63;;;0.90;;
12059;SDS011;6091;51.432;6.880;2023-04-25T10:54:14;1.17;;;0.95;;
12059;SDS011;6091;51.432;6.880;2023-04-25T10:56:48;1.25;;;0.80;;
12059;SDS011;6091;51.432;6.880;2023-04-25T10:59:18;1.27;;;0.90;;
12059;SDS011;6091;51.432;6.880;2023-04-25T11:01:51;1.30;;;1.00;;
12059;SDS011;6091;51.432;6.880;2023-04-25T11:04:23;1.38;;;0.80;;
12059;SDS011;6091;51.432;6.880;2023-04-25T11:09:34;1.58;;;0.80;;
12059;SDS011;6091;51.432;6.880;2023-04-25T11:12:06;2.25;;;0.80;;
12059;SDS011;6091;51.432;6.880;2023-04-25T11:14:36;1.27;;;0.98;;
12059;SDS011;6091;51.432;6.880;2023-04-25T11:17:03;2.45;;;0.90;;
12059;SDS011;6091;51.432;6.880;2023-04-25T11:19:32;1.35;;;1.00;;
12059;SDS011;6091;51.432;6.880;2023-04-25T11:22:02;1.45;;;0.95;;
12059;SDS011;6091;51.432;6.880;2023-04-25T11:24:31;1.63;;;0.90;;
12059;SDS011;6091;51.432;6.880;2023-04-25T11:27:01;0.80;;;0.63;;
12059;SDS011;6091;51.432;6.880;2023-04-25T11:29:31;1.33;;;0.98;;
12059;SDS011;6091;51.432;6.880;2023-04-25T11:32:00;1.17;;;1.00;;
12059;SDS011;6091;51.432;6.880;2023-04-25T11:34:29;1.85;;;1.05;;
12059;SDS011;6091;51.432;6.880;2023-04-25T11:37:00;1.40;;;0.90;;
12059;SDS011;6091;51.432;6.880;2023-04-25T11:39:29;2.03;;;0.98;;
12059;SDS011;6091;51.432;6.880;2023-04-25T11:42:00;1.73;;;0.80;;
12059;SDS011;6091;51.432;6.880;2023-04-25T11:44:31;2.47;;;0.98;;
12059;SDS011;6091;51.432;6.880;2023-04-25T11:46:59;1.35;;;0.90;;
12059;SDS011;6091;51.432;6.880;2023-04-25T11:49:30;2.53;;;0.85;;
12059;SDS011;6091;51.432;6.880;2023-04-25T11:51:58;2.17;;;0.70;;
12059;SDS011;6091;51.432;6.880;2023-04-25T11:54:26;1.52;;;0.88;;
12059;SDS011;6091;51.432;6.880;2023-04-25T11:56:54;2.63;;;0.70;;
12059;SDS011;6091;51.432;6.880;2023-04-25T11:59:23;2.58;;;0.98;;
12059;SDS011;6091;51.432;6.880;2023-04-25T12:01:52;2.28;;;1.02;;
12059;SDS011;6091;51.432;6.880;2023-04-25T12:04:24;2.25;;;1.20;;
12059;SDS011;6091;51.432;6.880;2023-04-25T12:06:56;1.52;;;1.02;;
12059;SDS011;6091;51.432;6.880;2023-04-25T12:09:27;2.10;;;1.10;;
12059;SDS011;6091;51.432;6.880;2023-04-25T12:12:00;1.85;;;1.20;;
12059;SDS011;6091;51.432;6.880;2023-04-25T12:14:33;4.50;;;1.80;;
12059;SDS011;6091;51.432;6.880;2023-04-25T12:17:03;4.50;;;1.10;;
12059;SDS011;6091;51.432;6.880;2023-04-25T12:19:36;3.70;;;1.30;;
12059;SDS011;6091;51.432;6.880;2023-04-25T12:22:23;2.17;;;1.27;;
12059;SDS011;6091;51.432;6.880;2023-04-25T12:24:51;1.25;;;0.90;;
12059;SDS011;6091;51.432;6.880;2023-04-25T12:27:20;3.30;;;1.10;;
12059;SDS011;6091;51.432;6.880;2023-04-25T12:29:52;1.40;;;1.05;;
12059;SDS011;6091;51.432;6.880;2023-04-25T12:32:23;1.65;;;1.15;;
12059;SDS011;6091;51.432;6.880;2023-04-25T12:34:52;2.08;;;1.05;;
12059;SDS011;6091;51.432;6.880;2023-04-25T12:37:20;3.58;;;1.00;;
12059;SDS011;6091;51.432;6.880;2023-04-25T12:39:47;2.53;;;1.23;;
12059;SDS011;6091;51.432;6.880;2023-04-25T12:42:14;3.45;;;1.05;;
12059;SDS011;6091;51.432;6.880;2023-04-25T12:44:45;1.27;;;0.80;;
12059;SDS011;6091;51.432;6.880;2023-04-25T12:47:16;1.50;;;0.98;;
12059;SDS011;6091;51.432;6.880;2023-04-25T12:49:46;1.88;;;1.05;;
12059;SDS011;6091;51.432;6.880;2023-04-25T12:52:13;1.30;;;0.80;;
12059;SDS011;6091;51.432;6.880;2023-04-25T12:54:44;2.38;;;1.10;;
12059;SDS011;6091;51.432;6.880;2023-04-25T12:57:12;2.03;;;0.90;;
12059;SDS011;6091;51.432;6.880;2023-04-25T12:59:39;1.40;;;1.02;;
12059;SDS011;6091;51.432;6.880;2023-04-25T13:02:06;1.15;;;0.90;;
12059;SDS011;6091;51.432;6.880;2023-04-25T13:04:34;2.28;;;1.00;;
12059;SDS011;6091;51.432;6.880;2023-04-25T13:07:02;1.65;;;1.10;;
12059;SDS011;6091;51.432;6.880;2023-04-25T13:09:30;2.45;;;1.00;;
12059;SDS011;6091;51.432;6.880;2023-04-25T13:11:57;1.58;;;0.77;;
12059;SDS011;6091;51.432;6.880;2023-04-25T13:14:25;0.93;;;0.77;;
12059;SDS011;6091;51.432;6.880;2023-04-25T13:16:52;1.52;;;0.90;;
12059;SDS011;6091;51.432;6.880;2023-04-25T13:19:20;0.95;;;0.80;;
12059;SDS011;6091;51.432;6.880;2023-04-25T13:21:48;1.73;;;0.80;;
12059;SDS011;6091;51.432;6.880;2023-04-25T13:24:16;1.08;;;0.80;;
12059;SDS011;6091;51.432;6.880;2023-04-25T13:26:46;1.85;;;0.93;;
12059;SDS011;6091;51.432;6.880;2023-04-25T13:29:14;3.08;;;1.20;;
12059;SDS011;6091;51.432;6.880;2023-04-25T13:31:49;0.70;;;0.70;;
12059;SDS011;6091;51.432;6.880;2023-04-25T13:34:20;1.85;;;0.90;;
12059;SDS011;6091;51.432;6.880;2023-04-25T13:36:47;1.20;;;0.80;;
12059;SDS011;6091;51.432;6.880;2023-04-25T13:39:14;1.13;;;0.80;;
12059;SDS011;6091;51.432;6.880;2023-04-25T13:41:41;1.50;;;0.85;;
12059;SDS011;6091;51.432;6.880;2023-04-25T13:44:09;0.60;;;0.60;;
12059;SDS011;6091;51.432;6.880;2023-04-25T13:46:38;0.60;;;0.60;;
12059;SDS011;6091;51.432;6.880;2023-04-25T13:49:13;1.95;;;0.90;;
12059;SDS011;6091;51.432;6.880;2023-04-25T13:51:41;0.70;;;0.70;;
12059;SDS011;6091;51.432;6.880;2023-04-25T13:54:09;1.23;;;0.70;;
12059;SDS011;6091;51.432;6.880;2023-04-25T13:56:37;2.05;;;0.80;;
12059;SDS011;6091;51.432;6.880;2023-04-25T13:59:04;0.70;;;0.57;;
12059;SDS011;6091;51.432;6.880;2023-04-25T14:01:38;1.38;;;0.80;;
12059;SDS011;6091;51.432;6.880;2023-04-25T14:04:05;3.53;;;0.90;;
12059;SDS011;6091;51.432;6.880;2023-04-25T14:06:40;1.65;;;1.08;;
12059;SDS011;6091;51.432;6.880;2023-04-25T14:09:08;2.08;;;0.90;;
12059;SDS011;6091;51.432;6.880;2023-04-25T14:11:36;1.33;;;0.95;;
12059;SDS011;6091;51.432;6.880;2023-04-25T14:14:06;2.33;;;0.80;;
12059;SDS011;6091;51.432;6.880;2023-04-25T14:16:34;1.35;;;1.00;;
12059;SDS011;6091;51.432;6.880;2023-04-25T14:19:02;3.70;;;1.20;;
12059;SDS011;6091;51.432;6.880;2023-04-25T14:21:29;1.23;;;0.70;;
12059;SDS011;6091;51.432;6.880;2023-04-25T14:23:58;1.00;;;0.80;;
12059;SDS011;6091;51.432;6.880;2023-04-25T14:26:26;0.90;;;0.60;;
12059;SDS011;6091;51.432;6.880;2023-04-25T14:28:53;1.05;;;0.65;;
12059;SDS011;6091;51.432;6.880;2023-04-25T14:31:20;0.73;;;0.60;;
12059;SDS011;6091;51.432;6.880;2023-04-25T14:33:47;1.42;;;1.02;;
12059;SDS011;6091;51.432;6.880;2023-04-25T14:36:17;1.15;;;0.90;;
12059;SDS011;6091;51.432;6.880;2023-04-25T14:38:45;0.70;;;0.68;;
12059;SDS011;6091;51.432;6.880;2023-04-25T14:41:12;1.63;;;0.80;;
12059;SDS011;6091;51.432;6.880;2023-04-25T14:43:40;0.70;;;0.70;;
12059;SDS011;6091;51.432;6.880;2023-04-25T14:46:08;1.13;;;0.73;;
12059;SDS011;6091;51.432;6.880;2023-04-25T14:48:36;1.58;;;0.70;;
12059;SDS011;6091;51.432;6.880;2023-04-25T14:51:04;1.08;;;0.77;;
12059;SDS011;6091;51.432;6.880;2023-04-25T14:53:32;1.25;;;0.60;;
12059;SDS011;6091;51.432;6.880;2023-04-25T14:55:59;2.90;;;1.00;;
12059;SDS011;6091;51.432;6.880;2023-04-25T14:58:26;1.67;;;1.00;;
12059;SDS011;6091;51.432;6.880;2023-04-25T15:00:54;1.52;;;0.82;;
12059;SDS011;6091;51.432;6.880;2023-04-25T15:03:22;3.03;;;0.68;;
12059;SDS011;6091;51.432;6.880;2023-04-25T15:05:49;4.40;;;1.17;;
12059;SDS011;6091;51.432;6.880;2023-04-25T15:08:17;2.85;;;0.88;;
12059;SDS011;6091;51.432;6.880;2023-04-25T15:10:44;1.95;;;0.85;;
12059;SDS011;6091;51.432;6.880;2023-04-25T15:13:12;3.10;;;1.00;;